Time;durP1;ratioP1;P1;durP2;ratioP2;P2;SDS_P1;SDS_P2;PMS_P1;PMS_P2;Temp;Humidity;BMP_temperature;BMP_pressure;BME280_temperature;BME280_humidity;BME280_pressure;Samples;Min_cycle;Max_cycle;Signal;HPM_P1;HPM_P2
2021/07/27 00:00:16;;;;;;;1999.90;999.90;;;18.90;99.90;;;;;;5014985;28;20224;-70
2021/07/27 00:02:42;;;;;;;1999.90;999.90;;;18.90;99.90;;;;;;5015015;28;20176;-69
2021/07/27 00:05:07;;;;;;;1999.90;999.90;;;18.80;99.90;;;;;;5014676;28;20180;-70
2021/07/27 00:07:37;;;;;;;1999.90;999.90;;;18.70;99.90;;;;;;5014838;28;20172;-70
2021/07/27 00:10:05;;;;;;;1999.90;999.90;;;18.80;99.90;;;;;;5014779;28;20212;-70
2021/07/27 00:12:30;;;;;;;1999.90;999.90;;;18.70;99.90;;;;;;5014658;28;20442;-70
2021/07/27 00:14:56;;;;;;;1999.90;999.90;;;18.70;99.90;;;;;;5014494;28;20427;-70
2021/07/27 00:17:21;;;;;;;1999.90;999.90;;;18.70;99.90;;;;;;5014769;28;20727;-70
2021/07/27 00:19:47;;;;;;;1999.90;999.90;;;18.70;99.90;;;;;;5016023;28;20188;-69
2021/07/27 00:22:12;;;;;;;1999.90;999.90;;;18.70;99.90;;;;;;5016260;28;20171;-70
2021/07/27 00:24:38;;;;;;;1999.90;999.90;;;18.70;99.90;;;;;;5015516;28;20201;-70
2021/07/27 00:27:03;;;;;;;1999.90;999.90;;;18.60;99.90;;;;;;5016127;28;20176;-70
2021/07/27 00:29:29;;;;;;;1999.90;999.90;;;18.60;99.90;;;;;;5014588;28;20185;-70
2021/07/27 00:31:54;;;;;;;1999.90;999.90;;;18.60;99.90;;;;;;5015879;28;20165;-70
2021/07/27 00:34:20;;;;;;;1999.90;999.90;;;18.60;99.90;;;;;;5015184;28;20685;-70
2021/07/27 00:36:46;;;;;;;1999.90;999.90;;;18.60;99.90;;;;;;5015268;28;20176;-69
2021/07/27 00:39:11;;;;;;;1999.90;999.90;;;18.60;99.90;;;;;;5015122;28;20273;-70
2021/07/27 00:41:37;;;;;;;1999.90;999.90;;;18.60;99.90;;;;;;5015255;28;20299;-70
2021/07/27 00:44:02;;;;;;;1999.90;999.90;;;18.70;99.90;;;;;;5014949;28;20192;-70
2021/07/27 00:46:28;;;;;;;1999.90;999.90;;;18.70;99.90;;;;;;5015206;28;20181;-70
2021/07/27 00:48:54;;;;;;;1999.90;999.90;;;18.70;99.90;;;;;;5015650;28;20174;-70
2021/07/27 00:51:19;;;;;;;1999.90;999.90;;;18.70;99.90;;;;;;5015152;28;20192;-70
2021/07/27 00:53:45;;;;;;;1999.90;999.90;;;18.70;99.90;;;;;;5014938;28;20197;-70
2021/07/27 00:56:11;;;;;;;1999.90;999.90;;;18.60;99.90;;;;;;5014878;28;20190;-70
2021/07/27 00:58:37;;;;;;;1999.90;999.90;;;18.60;99.90;;;;;;5015071;28;20252;-70
2021/07/27 01:01:03;;;;;;;1999.90;999.90;;;18.60;99.90;;;;;;5015165;28;20184;-70
2021/07/27 01:03:29;;;;;;;1999.90;999.90;;;18.50;99.90;;;;;;5014871;28;20410;-70
2021/07/27 01:05:54;;;;;;;1999.90;999.90;;;18.50;99.90;;;;;;5014325;28;20448;-70
2021/07/27 01:08:20;;;;;;;1999.90;999.90;;;18.50;99.90;;;;;;5014964;28;20474;-69
2021/07/27 01:10:47;;;;;;;1999.90;999.90;;;18.50;99.90;;;;;;5014721;28;20287;-70
2021/07/27 01:13:12;;;;;;;1999.90;999.90;;;18.50;99.90;;;;;;5014732;28;20619;-69
2021/07/27 01:15:38;;;;;;;1999.90;999.90;;;18.50;99.90;;;;;;5014170;28;20463;-70
2021/07/27 01:18:09;;;;;;;1999.90;999.90;;;18.50;99.90;;;;;;5015095;28;20170;-70
2021/07/27 01:39:39;;;;;;;1999.90;999.90;;;18.30;99.90;;;;;;5015666;28;20454;-70
2021/07/27 01:42:14;;;;;;;1999.90;999.90;;;18.40;99.90;;;;;;5016340;28;20451;-71
2021/07/27 01:44:44;;;;;;;1999.90;999.90;;;18.40;99.90;;;;;;5016166;28;20446;-71
2021/07/27 01:47:10;;;;;;;1999.90;999.90;;;18.40;99.90;;;;;;5015994;28;20466;-70
2021/07/27 01:49:36;;;;;;;1999.90;999.90;;;18.40;99.90;;;;;;5016007;28;20462;-71
2021/07/27 01:52:02;;;;;;;1999.90;999.90;;;18.40;99.90;;;;;;5016158;28;20408;-71
2021/07/27 01:54:41;;;;;;;1999.90;999.90;;;18.50;99.90;;;;;;5015544;28;20196;-71
2021/07/27 01:57:11;;;;;;;1999.90;999.90;;;18.40;99.90;;;;;;5016014;28;20645;-71
2021/07/27 01:59:38;;;;;;;1999.90;999.90;;;18.40;99.90;;;;;;5015692;28;20436;-70
2021/07/27 02:02:04;;;;;;;1999.90;999.90;;;18.30;99.90;;;;;;5016041;28;20439;-70
2021/07/27 02:04:30;;;;;;;1999.90;999.90;;;18.30;99.90;;;;;;5015763;28;20450;-70
2021/07/27 02:06:55;;;;;;;1999.90;999.90;;;18.30;99.90;;;;;;5015456;28;20847;-70
2021/07/27 02:09:21;;;;;;;1999.90;999.90;;;18.30;99.90;;;;;;4997693;28;20182;-70
2021/07/27 02:11:48;;;;;;;1999.90;999.90;;;18.20;99.90;;;;;;5014735;28;20174;-71
2021/07/27 02:14:16;;;;;;;1999.90;999.90;;;18.20;99.90;;;;;;5014907;28;20688;-70
2021/07/27 02:16:42;;;;;;;1999.90;999.90;;;18.30;99.90;;;;;;5014855;28;20425;-70
2021/07/27 02:19:08;;;;;;;1999.90;999.90;;;18.20;99.90;;;;;;5014855;28;20412;-71
2021/07/27 02:21:33;;;;;;;1999.90;999.90;;;18.20;99.90;;;;;;5014290;28;20180;-71
2021/07/27 02:24:00;;;;;;;1999.90;999.90;;;18.20;99.90;;;;;;5014832;28;20205;-71
2021/07/27 02:26:26;;;;;;;1999.90;999.90;;;18.20;99.90;;;;;;5014372;28;20187;-71
2021/07/27 02:28:52;;;;;;;1999.90;999.90;;;18.20;99.90;;;;;;5014625;28;20412;-71
2021/07/27 02:31:42;;;;;;;1999.90;999.90;;;18.20;99.90;;;;;;5014305;28;20438;-71
2021/07/27 02:34:07;;;;;;;1999.90;999.90;;;18.20;99.90;;;;;;5013730;28;20474;-71
2021/07/27 02:36:33;;;;;;;1999.90;999.90;;;18.20;99.90;;;;;;5014144;28;20409;-71
2021/07/27 02:39:04;;;;;;;1999.90;999.90;;;18.20;99.90;;;;;;5014193;28;20598;-71
2021/07/27 02:41:31;;;;;;;1999.90;999.90;;;18.20;99.90;;;;;;5014024;28;20498;-71
2021/07/27 02:43:57;;;;;;;1999.90;999.90;;;18.10;99.90;;;;;;5013675;28;20980;-72
2021/07/27 02:46:22;;;;;;;1999.90;999.90;;;18.20;99.90;;;;;;5014225;28;20478;-71
2021/07/27 02:48:48;;;;;;;1999.90;999.90;;;18.10;99.90;;;;;;5014239;28;20423;-71
2021/07/27 02:51:13;;;;;;;1999.90;999.90;;;18.10;99.90;;;;;;5014307;28;20267;-71
2021/07/27 02:53:39;;;;;;;1999.90;999.90;;;18.10;99.90;;;;;;5016847;28;20803;-70
2021/07/27 02:56:04;;;;;;;1999.90;999.90;;;18.00;99.90;;;;;;5016843;28;20303;-69
2021/07/27 02:58:31;;;;;;;1999.90;999.90;;;18.00;99.90;;;;;;5016867;28;20195;-70
2021/07/27 03:00:57;;;;;;;1999.90;999.90;;;18.00;99.90;;;;;;5016972;28;20270;-69
2021/07/27 03:03:23;;;;;;;1999.90;999.90;;;18.00;99.90;;;;;;5016583;28;20469;-70
2021/07/27 03:05:49;;;;;;;1999.90;999.90;;;18.00;99.90;;;;;;5017881;28;20400;-71
2021/07/27 03:08:20;;;;;;;1999.90;999.90;;;17.90;99.90;;;;;;5017856;28;20205;-71
2021/07/27 03:10:46;;;;;;;1999.90;999.90;;;17.90;99.90;;;;;;5017897;28;20513;-71
2021/07/27 03:13:11;;;;;;;1999.90;999.90;;;17.90;99.90;;;;;;5017606;28;20907;-70
2021/07/27 03:15:37;;;;;;;1999.90;999.90;;;17.90;99.90;;;;;;5015910;28;20162;-71
2021/07/27 03:18:03;;;;;;;1999.90;999.90;;;17.90;99.90;;;;;;5015798;28;20173;-70
2021/07/27 03:20:31;;;;;;;1999.90;999.90;;;17.90;99.90;;;;;;5015737;28;20283;-70
2021/07/27 03:22:56;;;;;;;1999.90;999.90;;;17.90;99.90;;;;;;5015680;28;20187;-70
2021/07/27 03:25:23;;;;;;;1999.90;999.90;;;17.90;99.90;;;;;;5015366;28;20414;-71
2021/07/27 03:27:51;;;;;;;1999.90;999.90;;;17.80;99.90;;;;;;5015640;28;20173;-70
2021/07/27 03:30:18;;;;;;;1999.90;999.90;;;17.80;99.90;;;;;;5015493;28;20452;-70
2021/07/27 03:32:45;;;;;;;1999.90;999.90;;;17.70;99.90;;;;;;5015418;28;20822;-70
2021/07/27 03:35:16;;;;;;;1999.90;999.90;;;17.70;99.90;;;;;;5015264;28;20931;-70
2021/07/27 03:37:43;;;;;;;1999.90;999.90;;;17.70;99.90;;;;;;5015582;28;20439;-70
2021/07/27 03:40:10;;;;;;;1999.90;999.90;;;17.60;99.90;;;;;;5016007;28;20441;-71
2021/07/27 03:42:35;;;;;;;1999.90;999.90;;;17.60;99.90;;;;;;5018245;28;20408;-70
2021/07/27 03:45:01;;;;;;;1999.90;999.90;;;17.60;99.90;;;;;;5017098;28;20514;-70
2021/07/27 03:47:27;;;;;;;1999.90;999.90;;;17.50;99.90;;;;;;5017630;28;20170;-71
2021/07/27 03:49:55;;;;;;;1999.90;999.90;;;17.50;99.90;;;;;;5017585;28;20199;-70
2021/07/27 03:52:21;;;;;;;1999.90;999.90;;;17.50;99.90;;;;;;5017277;28;20186;-71
2021/07/27 03:54:46;;;;;;;1999.90;999.90;;;17.50;99.90;;;;;;5017327;28;20496;-71
2021/07/27 03:57:12;;;;;;;1999.90;999.90;;;17.50;99.90;;;;;;5017135;28;20177;-70
2021/07/27 03:59:38;;;;;;;1999.90;999.90;;;17.50;99.90;;;;;;5016598;28;20200;-71
2021/07/27 04:02:04;;;;;;;1999.90;999.90;;;17.50;99.90;;;;;;5017164;28;20224;-71
2021/07/27 04:04:34;;;;;;;1999.90;999.90;;;17.50;99.90;;;;;;5016629;28;20177;-71
2021/07/27 04:07:00;;;;;;;1999.90;999.90;;;17.60;99.90;;;;;;5017093;28;20452;-71
2021/07/27 04:09:29;;;;;;;1999.90;999.90;;;17.60;99.90;;;;;;5016480;28;20458;-71
2021/07/27 04:11:55;;;;;;;1999.90;999.90;;;17.70;99.90;;;;;;5016821;28;20258;-70
2021/07/27 04:14:21;;;;;;;1999.90;999.90;;;17.70;99.90;;;;;;5016461;28;20456;-71
2021/07/27 04:16:46;;;;;;;1999.90;999.90;;;17.70;99.90;;;;;;5016871;28;20507;-70
2021/07/27 04:19:12;;;;;;;1999.90;999.90;;;17.80;99.90;;;;;;5016917;28;20166;-71
2021/07/27 04:21:41;;;;;;;1999.90;999.90;;;17.70;99.90;;;;;;5016365;28;20167;-71
2021/07/27 04:24:06;;;;;;;1999.90;999.90;;;17.70;99.90;;;;;;5016152;28;20196;-71
2021/07/27 04:26:32;;;;;;;1999.90;999.90;;;17.80;99.90;;;;;;5016189;28;20905;-71
2021/07/27 04:28:58;;;;;;;1999.90;999.90;;;17.80;99.90;;;;;;5016757;28;20170;-70
2021/07/27 04:31:23;;;;;;;1999.90;999.90;;;17.80;99.90;;;;;;5016047;28;20192;-71
2021/07/27 04:33:49;;;;;;;1999.90;999.90;;;17.80;99.90;;;;;;5016111;28;20213;-71
2021/07/27 04:36:14;;;;;;;1999.90;999.90;;;17.80;99.90;;;;;;5015722;28;20165;-70
2021/07/27 04:38:40;;;;;;;1999.90;999.90;;;17.90;99.90;;;;;;5015984;28;20172;-71
2021/07/27 04:41:07;;;;;;;1999.90;999.90;;;17.90;99.90;;;;;;5015682;28;20261;-71
2021/07/27 04:43:35;;;;;;;1999.90;999.90;;;18.00;99.90;;;;;;5015680;28;20308;-71
2021/07/27 04:46:02;;;;;;;1999.90;999.90;;;18.00;99.90;;;;;;5015631;28;20496;-71
2021/07/27 04:48:28;;;;;;;1999.90;999.90;;;18.10;99.90;;;;;;5015984;28;20843;-71
2021/07/27 04:50:54;;;;;;;1999.90;999.90;;;18.00;99.90;;;;;;5016034;28;20466;-71
2021/07/27 04:53:23;;;;;;;1999.90;999.90;;;18.00;99.90;;;;;;5015970;28;20587;-71
2021/07/27 04:55:53;;;;;;;1999.90;999.90;;;18.00;99.90;;;;;;5015585;28;20170;-71
2021/07/27 04:58:19;;;;;;;1999.90;999.90;;;18.10;99.90;;;;;;5015892;28;20405;-71
2021/07/27 05:00:44;;;;;;;1999.90;999.90;;;18.10;99.90;;;;;;5015868;28;20424;-70
2021/07/27 05:03:10;;;;;;;1999.90;999.90;;;18.20;99.90;;;;;;5015207;28;20177;-71
2021/07/27 05:05:36;;;;;;;1999.90;999.90;;;18.30;99.90;;;;;;5015235;28;20183;-70
2021/07/27 05:08:02;;;;;;;1999.90;999.90;;;18.30;99.90;;;;;;5015481;28;20175;-70
2021/07/27 05:10:28;;;;;;;1999.90;999.90;;;18.30;99.90;;;;;;5015115;28;20199;-70
2021/07/27 05:12:54;;;;;;;1999.90;999.90;;;18.40;99.90;;;;;;5015683;28;20472;-71
2021/07/27 05:15:19;;;;;;;1999.90;999.90;;;18.40;99.90;;;;;;5014601;28;20161;-71
2021/07/27 05:17:46;;;;;;;1999.90;999.90;;;18.30;99.90;;;;;;5015165;28;20555;-70
2021/07/27 05:20:12;;;;;;;1999.90;999.90;;;18.30;99.90;;;;;;5015075;28;20441;-71
2021/07/27 05:22:38;;;;;;;1999.90;999.90;;;18.30;99.90;;;;;;5015145;28;20454;-70
2021/07/27 05:25:04;;;;;;;1999.90;999.90;;;18.30;99.90;;;;;;5014669;28;20425;-71
2021/07/27 05:27:34;;;;;;;1999.90;999.90;;;18.40;99.90;;;;;;5015238;28;20193;-71
2021/07/27 05:30:00;;;;;;;1999.90;999.90;;;18.40;99.90;;;;;;5015104;28;21180;-70
2021/07/27 05:32:25;;;;;;;1999.90;999.90;;;18.50;99.90;;;;;;5014988;28;20413;-71
2021/07/27 05:34:52;;;;;;;1999.90;999.90;;;18.50;99.90;;;;;;5014390;28;20233;-71
2021/07/27 05:37:17;;;;;;;1999.90;999.90;;;18.50;99.90;;;;;;5014154;28;20170;-71
2021/07/27 05:39:44;;;;;;;1999.90;999.90;;;18.60;99.90;;;;;;5014590;28;20794;-71
2021/07/27 05:42:09;;;;;;;1999.90;999.90;;;18.70;99.90;;;;;;5014895;28;20224;-70
2021/07/27 05:44:35;;;;;;;1999.90;999.90;;;18.80;99.90;;;;;;5014042;28;20405;-71
2021/07/27 05:47:01;;;;;;;1999.90;999.90;;;18.80;99.90;;;;;;5013976;28;20665;-72
2021/07/27 05:49:27;;;;;;;1999.90;999.90;;;18.80;99.90;;;;;;5013744;28;20226;-71
2021/07/27 05:51:54;;;;;;;1999.90;999.90;;;18.90;99.90;;;;;;5013076;28;21099;-71
2021/07/27 05:54:20;;;;;;;1999.90;999.90;;;19.00;99.90;;;;;;5012634;28;20459;-71
2021/07/27 05:56:49;;;;;;;1999.90;999.90;;;19.10;99.90;;;;;;5013148;28;20772;-71
2021/07/27 05:59:16;;;;;;;1999.90;999.90;;;19.20;99.90;;;;;;5012844;28;20408;-72
2021/07/27 06:01:42;;;;;;;1999.90;999.90;;;19.30;99.90;;;;;;5012807;28;20401;-71
2021/07/27 06:04:08;;;;;;;1999.90;999.90;;;19.50;99.90;;;;;;5012497;28;20405;-71
2021/07/27 06:06:34;;;;;;;1999.90;999.90;;;19.70;99.90;;;;;;5012963;28;20421;-71
2021/07/27 06:09:14;;;;;;;1999.90;999.90;;;19.80;99.90;;;;;;5012717;28;20408;-71
2021/07/27 06:11:40;;;;;;;1999.90;999.90;;;19.80;99.90;;;;;;5012958;28;20190;-70
2021/07/27 06:14:07;;;;;;;1999.90;999.90;;;20.00;99.90;;;;;;5012123;28;20521;-71
2021/07/27 06:16:37;;;;;;;1999.90;999.90;;;20.10;99.90;;;;;;5012735;28;20404;-71
2021/07/27 06:19:03;;;;;;;1999.90;999.90;;;20.10;99.90;;;;;;5012525;28;20431;-71
2021/07/27 06:21:28;;;;;;;1999.90;999.90;;;20.10;99.90;;;;;;5012571;28;20435;-71
2021/07/27 06:23:54;;;;;;;1999.90;999.90;;;20.20;99.90;;;;;;5012268;28;20917;-71
2021/07/27 06:26:20;;;;;;;1999.90;999.90;;;20.20;99.90;;;;;;5012051;28;20180;-71
2021/07/27 06:28:45;;;;;;;1999.90;999.90;;;20.30;99.90;;;;;;5011991;28;20590;-71
2021/07/27 06:31:11;;;;;;;1999.90;999.90;;;20.30;99.90;;;;;;5012381;28;20185;-71
2021/07/27 06:33:38;;;;;;;1999.90;999.90;;;20.40;99.90;;;;;;5012219;28;20288;-71
2021/07/27 06:36:04;;;;;;;1999.90;999.90;;;20.50;99.90;;;;;;5012116;28;20395;-71
2021/07/27 06:38:30;;;;;;;1999.90;999.90;;;20.60;99.90;;;;;;5012315;28;20411;-70
2021/07/27 06:40:56;;;;;;;1999.90;999.90;;;20.60;99.90;;;;;;5012087;28;20823;-70
2021/07/27 06:43:21;;;;;;;1999.90;999.90;;;20.70;99.90;;;;;;5012226;28;20247;-71
2021/07/27 06:45:54;;;;;;;1999.90;999.90;;;20.70;99.90;;;;;;5011992;28;20165;-71
2021/07/27 06:48:21;;;;;;;1999.90;999.90;;;20.80;99.90;;;;;;5012339;28;20280;-71
2021/07/27 06:50:46;;;;;;;1999.90;999.90;;;20.80;99.90;;;;;;5012793;28;20435;-70
2021/07/27 06:53:12;;;;;;;1999.90;999.90;;;20.80;99.90;;;;;;5012508;28;20458;-71
2021/07/27 06:55:38;;;;;;;1999.90;999.90;;;20.70;99.90;;;;;;5012625;28;20173;-71
2021/07/27 06:58:03;;;;;;;1999.90;999.90;;;20.70;99.90;;;;;;5012505;28;20656;-71
2021/07/27 07:00:29;;;;;;;1999.90;999.90;;;20.70;99.90;;;;;;5012743;28;20435;-71
2021/07/27 07:02:55;;;;;;;1999.90;999.90;;;20.70;99.90;;;;;;5012642;28;20180;-71
2021/07/27 07:05:20;;;;;;;1999.90;999.90;;;20.70;99.90;;;;;;5012742;28;20525;-71
2021/07/27 07:07:46;;;;;;;1999.90;999.90;;;20.80;99.90;;;;;;5013290;28;20172;-71
2021/07/27 07:10:12;;;;;;;1999.90;999.90;;;20.80;99.90;;;;;;5013284;28;20204;-71
2021/07/27 07:12:37;;;;;;;1999.90;999.90;;;20.80;99.90;;;;;;5012586;28;20165;-71
2021/07/27 07:15:04;;;;;;;1999.90;999.90;;;20.90;99.90;;;;;;5012508;28;20408;-70
2021/07/27 07:17:30;;;;;;;1999.90;999.90;;;21.00;99.90;;;;;;5012872;28;20173;-71
2021/07/27 07:19:56;;;;;;;1999.90;999.90;;;21.20;99.90;;;;;;5012598;28;20508;-71
2021/07/27 07:22:21;;;;;;;1999.90;999.90;;;21.20;99.90;;;;;;5012779;28;20252;-71
2021/07/27 07:24:47;;;;;;;1999.90;999.90;;;21.30;99.90;;;;;;5012099;28;20510;-70
2021/07/27 07:27:13;;;;;;;1999.90;999.90;;;21.30;99.90;;;;;;5011916;28;20207;-70
2021/07/27 07:29:39;;;;;;;1999.90;999.90;;;21.40;99.90;;;;;;5011774;28;20186;-70
2021/07/27 07:32:05;;;;;;;1999.90;999.90;;;21.50;99.90;;;;;;5011769;28;20650;-70
2021/07/27 07:34:32;;;;;;;1999.90;999.90;;;21.60;99.90;;;;;;5011637;28;20459;-70
2021/07/27 07:36:57;;;;;;;1999.90;999.90;;;21.70;99.90;;;;;;5011745;28;20815;-70
2021/07/27 07:39:23;;;;;;;1999.90;999.90;;;21.80;99.90;;;;;;5014030;28;20456;-70
2021/07/27 07:41:49;;;;;;;1999.90;999.90;;;21.90;99.90;;;;;;5015403;28;20182;-70
2021/07/27 07:44:15;;;;;;;1999.90;999.90;;;22.00;99.90;;;;;;5015105;28;20510;-70
2021/07/27 07:46:40;;;;;;;1999.90;999.90;;;22.00;99.90;;;;;;5015306;28;20465;-70
2021/07/27 07:49:06;;;;;;;1999.90;999.90;;;22.00;99.90;;;;;;5015351;28;20645;-70
2021/07/27 07:51:33;;;;;;;1999.90;999.90;;;21.90;99.90;;;;;;5015113;28;20202;-70
2021/07/27 07:54:00;;;;;;;1999.90;999.90;;;22.00;99.90;;;;;;5014789;28;20189;-70
2021/07/27 07:56:25;;;;;;;1999.90;999.90;;;22.00;99.90;;;;;;5015011;28;20437;-70
2021/07/27 07:58:51;;;;;;;1999.90;999.90;;;21.90;99.90;;;;;;5015107;28;20411;-70
2021/07/27 08:01:17;;;;;;;1999.90;999.90;;;21.90;99.90;;;;;;5014920;28;20272;-70
2021/07/27 08:03:43;;;;;;;1999.90;999.90;;;22.00;99.90;;;;;;5014963;28;20542;-70
2021/07/27 08:06:09;;;;;;;1999.90;999.90;;;22.10;99.90;;;;;;5014925;28;20405;-70
2021/07/27 08:08:36;;;;;;;1999.90;999.90;;;22.20;99.90;;;;;;5014942;28;20215;-70
2021/07/27 08:11:03;;;;;;;1999.90;999.90;;;22.20;99.90;;;;;;5014753;28;20692;-70
2021/07/27 08:13:28;;;;;;;1999.90;999.90;;;22.30;99.90;;;;;;5014735;28;20456;-70
2021/07/27 08:15:54;;;;;;;1999.90;999.90;;;22.30;99.90;;;;;;5014500;28;20411;-70
2021/07/27 08:18:20;;;;;;;1999.90;999.90;;;22.40;99.90;;;;;;5014884;28;20174;-70
2021/07/27 08:20:46;;;;;;;1999.90;999.90;;;22.50;99.90;;;;;;5014559;28;20465;-70
2021/07/27 08:23:12;;;;;;;1999.90;999.90;;;22.60;99.90;;;;;;5014677;28;20174;-70
2021/07/27 08:25:37;;;;;;;1999.90;999.90;;;22.70;99.90;;;;;;5014300;28;20168;-70
2021/07/27 08:28:03;;;;;;;1999.90;999.90;;;22.80;99.90;;;;;;5014576;28;20174;-70
2021/07/27 08:30:29;;;;;;;1999.90;999.90;;;22.90;99.90;;;;;;5014270;28;20704;-70
2021/07/27 08:32:55;;;;;;;1999.90;999.90;;;23.10;99.90;;;;;;5014336;28;20556;-70
2021/07/27 08:35:22;;;;;;;1999.90;999.90;;;23.20;99.90;;;;;;5014260;28;20175;-70
2021/07/27 08:37:49;;;;;;;1999.90;999.90;;;23.30;99.90;;;;;;5014219;28;20172;-70
2021/07/27 08:40:16;;;;;;;1999.90;999.90;;;23.30;99.90;;;;;;5013962;28;20450;-70
2021/07/27 08:42:42;;;;;;;1999.90;999.90;;;23.30;99.90;;;;;;5014046;28;20492;-70
2021/07/27 08:45:10;;;;;;;1999.90;999.90;;;23.40;99.90;;;;;;5013968;28;20397;-70
2021/07/27 08:47:35;;;;;;;1999.90;999.90;;;23.50;99.90;;;;;;5014387;28;20452;-70
2021/07/27 08:50:05;;;;;;;1999.90;999.90;;;23.60;99.90;;;;;;5013279;28;20488;-70
2021/07/27 08:52:31;;;;;;;1999.90;999.90;;;23.80;99.90;;;;;;5014115;28;20173;-70
2021/07/27 08:54:56;;;;;;;1999.90;999.90;;;24.10;99.90;;;;;;5013663;28;20397;-70
2021/07/27 08:57:22;;;;;;;1999.90;999.90;;;24.20;99.90;;;;;;5014044;28;20168;-71
2021/07/27 08:59:48;;;;;;;1999.90;999.90;;;24.20;99.90;;;;;;5013903;28;20188;-71
2021/07/27 09:02:13;;;;;;;1999.90;999.90;;;24.30;99.90;;;;;;5014087;28;20180;-71
2021/07/27 09:04:39;;;;;;;1999.90;999.90;;;24.20;99.90;;;;;;5013638;28;20235;-71
2021/07/27 09:07:06;;;;;;;1999.90;999.90;;;24.30;99.90;;;;;;5013837;28;20165;-71
2021/07/27 09:09:36;;;;;;;1999.90;999.90;;;24.30;99.90;;;;;;5013671;28;20613;-71
2021/07/27 09:12:09;;;;;;;1999.90;999.90;;;24.30;99.90;;;;;;5013610;28;20418;-70
2021/07/27 09:14:44;;;;;;;1999.90;999.90;;;24.20;99.90;;;;;;5013300;28;20467;-71
2021/07/27 09:17:10;;;;;;;1999.90;999.90;;;24.30;99.90;;;;;;5013628;28;20414;-71
2021/07/27 09:19:42;;;;;;;1999.90;999.90;;;24.20;99.90;;;;;;5013524;28;20427;-71
2021/07/27 09:22:08;;;;;;;1999.90;999.90;;;24.30;99.90;;;;;;5013469;28;20182;-71
2021/07/27 09:24:34;;;;;;;1999.90;999.90;;;24.40;99.90;;;;;;5013038;28;20375;-71
2021/07/27 09:27:00;;;;;;;1999.90;999.90;;;24.50;99.90;;;;;;5013658;28;20595;-71
2021/07/27 09:29:30;;;;;;;1999.90;999.90;;;24.70;99.90;;;;;;5013322;28;20404;-70
2021/07/27 09:32:00;;;;;;;1999.90;999.90;;;24.90;99.90;;;;;;5013202;28;20773;-72
2021/07/27 09:34:29;;;;;;;1999.90;999.90;;;25.00;99.90;;;;;;5013238;28;20527;-72
2021/07/27 09:37:05;;;;;;;1999.90;999.90;;;25.10;99.90;;;;;;5015596;28;20378;-72
2021/07/27 09:42:09;;;;;;;1999.90;999.90;;;25.40;99.90;;;;;;5011866;28;20447;-70
2021/07/27 09:44:39;;;;;;;1999.90;999.90;;;25.60;99.90;;;;;;5013105;28;20385;-70
2021/07/27 09:47:05;;;;;;;1999.90;999.90;;;25.60;99.90;;;;;;5013140;28;20483;-70
2021/07/27 09:49:32;;;;;;;1999.90;999.90;;;25.70;99.90;;;;;;5012985;28;20404;-70
2021/07/27 09:51:57;;;;;;;1999.90;999.90;;;25.70;99.90;;;;;;5012926;28;20534;-70
2021/07/27 09:54:24;;;;;;;1999.90;999.90;;;25.80;99.90;;;;;;5010992;28;20518;-70
2021/07/27 09:56:54;;;;;;;1999.90;999.90;;;25.80;99.90;;;;;;5011805;28;20168;-70
2021/07/27 09:59:22;;;;;;;1999.90;999.90;;;25.70;99.90;;;;;;5013692;28;20426;-69
2021/07/27 10:01:58;;;;;;;1999.90;999.90;;;25.60;99.90;;;;;;5012600;28;20423;-69
2021/07/27 10:04:37;;;;;;;1999.90;999.90;;;25.40;99.90;;;;;;5006001;28;20850;-69
2021/07/27 10:07:05;;;;;;;1999.90;999.90;;;25.30;99.90;;;;;;5021578;28;20940;-69
2021/07/27 10:09:32;;;;;;;1999.90;999.90;;;25.00;99.90;;;;;;5023945;28;20440;-69
2021/07/27 10:12:09;;;;;;;1999.90;999.90;;;25.00;99.90;;;;;;5018379;28;20434;-69
2021/07/27 10:14:42;;;;;;;1999.90;999.90;;;24.80;99.90;;;;;;5000304;28;20513;-74
2021/07/27 10:17:09;;;;;;;1999.90;999.90;;;24.80;99.90;;;;;;5001155;28;20390;-72
2021/07/27 10:19:45;;;;;;;1999.90;999.90;;;24.90;99.90;;;;;;5009579;28;20401;-73
2021/07/27 10:22:12;;;;;;;1999.90;999.90;;;25.20;99.90;;;;;;5004300;28;20379;-71
2021/07/27 10:24:43;;;;;;;1999.90;999.90;;;25.30;99.90;;;;;;5008432;28;20418;-73
2021/07/27 10:27:21;;;;;;;1999.90;999.90;;;25.30;99.90;;;;;;5011272;28;20423;-76
2021/07/27 10:29:48;;;;;;;1999.90;999.90;;;25.40;99.90;;;;;;4984717;28;20402;-70
2021/07/27 10:32:16;;;;;;;1999.90;999.90;;;25.40;99.90;;;;;;5021701;28;20411;-70
2021/07/27 10:34:43;;;;;;;1999.90;999.90;;;25.40;99.90;;;;;;5009405;28;20998;-70
2021/07/27 10:37:10;;;;;;;1999.90;999.90;;;25.40;99.90;;;;;;5001269;28;20408;-70
2021/07/27 10:39:57;;;;;;;1999.90;999.90;;;25.40;99.90;;;;;;5018272;28;20407;-69
2021/07/27 10:42:24;;;;;;;1999.90;999.90;;;25.30;99.90;;;;;;5008816;28;20818;-70
2021/07/27 10:44:51;;;;;;;1999.90;999.90;;;25.30;99.90;;;;;;5008167;28;20405;-72
2021/07/27 10:47:23;;;;;;;1999.90;999.90;;;25.30;99.90;;;;;;5009305;28;20392;-72
2021/07/27 10:50:05;;;;;;;1999.90;999.90;;;25.40;99.90;;;;;;4999837;28;20390;-69
2021/07/27 10:52:32;;;;;;;1999.90;999.90;;;25.50;99.90;;;;;;5014041;28;20397;-71
2021/07/27 10:54:59;;;;;;;1999.90;999.90;;;25.60;99.90;;;;;;5016960;28;20407;-69
2021/07/27 10:57:35;;;;;;;1999.90;999.90;;;25.70;99.90;;;;;;5003692;28;20457;-69
2021/07/27 11:00:05;;;;;;;1999.90;999.90;;;25.40;99.90;;;;;;5013600;28;20414;-69
2021/07/27 11:02:31;;;;;;;1999.90;999.90;;;25.20;99.90;;;;;;5017782;28;20415;-68
2021/07/27 11:04:56;;;;;;;1999.90;999.90;;;25.40;99.90;;;;;;5005341;28;20413;-71
2021/07/27 11:07:22;;;;;;;1999.90;999.90;;;25.70;99.90;;;;;;5001134;28;20207;-69
2021/07/27 11:09:56;;;;;;;1999.90;999.90;;;26.00;99.90;;;;;;5005539;28;20228;-71
2021/07/27 11:12:30;;;;;;;1999.90;999.90;;;26.40;99.90;;;;;;5017575;28;20227;-69
2021/07/27 11:15:23;;;;;;;1999.90;999.90;;;26.40;99.90;;;;;;5006285;28;20407;-69
2021/07/27 11:18:10;;;;;;;1999.90;999.90;;;26.30;99.90;;;;;;5003490;28;20394;-70
2021/07/27 11:20:37;;;;;;;1999.90;999.90;;;26.40;99.90;;;;;;5012711;28;20589;-69
2021/07/27 11:23:16;;;;;;;1999.90;999.90;;;26.50;99.90;;;;;;5020106;28;20421;-70
2021/07/27 11:25:42;;;;;;;1999.90;999.90;;;26.40;99.90;;;;;;5007396;28;20485;-68
2021/07/27 11:28:13;;;;;;;1999.90;999.90;;;26.50;99.90;;;;;;5007463;28;20905;-69
2021/07/27 11:30:39;;;;;;;1999.90;999.90;;;26.60;99.90;;;;;;5012570;28;20794;-69
2021/07/27 11:33:19;;;;;;;1999.90;999.90;;;26.60;99.90;;;;;;5019456;28;20433;-70
2021/07/27 11:35:50;;;;;;;1999.90;999.90;;;26.80;99.90;;;;;;5006562;28;20759;-69
2021/07/27 11:38:22;;;;;;;1999.90;999.90;;;27.00;99.90;;;;;;5008083;28;20473;-69
2021/07/27 11:40:50;;;;;;;1999.90;999.90;;;27.10;99.90;;;;;;5010799;28;20470;-69
2021/07/27 11:43:18;;;;;;;1999.90;999.90;;;27.20;99.90;;;;;;5010941;28;20810;-69
2021/07/27 11:45:45;;;;;;;1999.90;999.90;;;27.40;99.90;;;;;;5007124;28;20420;-70
2021/07/27 11:48:11;;;;;;;1999.90;999.90;;;27.40;99.90;;;;;;5006926;28;20390;-69
2021/07/27 11:50:41;;;;;;;1999.90;999.90;;;27.60;99.90;;;;;;5012241;28;20437;-69
2021/07/27 11:53:09;;;;;;;1999.90;999.90;;;27.60;99.90;;;;;;5019640;28;20956;-69
2021/07/27 11:55:39;;;;;;;1999.90;999.90;;;27.40;99.90;;;;;;5007443;28;20445;-69
2021/07/27 11:58:06;;;;;;;1999.90;999.90;;;27.40;99.90;;;;;;5006564;28;20412;-69
2021/07/27 12:00:33;;;;;;;1999.90;999.90;;;27.40;99.90;;;;;;5012663;28;20446;-71
2021/07/27 12:02:59;;;;;;;1999.90;999.90;;;27.30;99.90;;;;;;5018869;28;21322;-69
2021/07/27 12:05:25;;;;;;;1999.90;999.90;;;27.50;99.90;;;;;;5009064;28;20390;-70
2021/07/27 12:07:51;;;;;;;1999.90;999.90;;;27.60;99.90;;;;;;5004663;28;20404;-69
2021/07/27 12:10:17;;;;;;;1999.90;999.90;;;27.60;99.90;;;;;;5011216;28;20537;-69
2021/07/27 12:12:43;;;;;;;1999.90;999.90;;;27.40;99.90;;;;;;5020469;28;20545;-69
2021/07/27 12:15:12;;;;;;;1999.90;999.90;;;27.10;99.90;;;;;;5009904;28;20931;-69
2021/07/27 12:17:42;;;;;;;1999.90;999.90;;;27.10;99.90;;;;;;5003105;28;20953;-71
2021/07/27 12:20:10;;;;;;;1999.90;999.90;;;27.00;99.90;;;;;;5011403;28;20538;-69